Time,TemperatureF,DewpointF,PressureIn,WindDirection,WindDirectionDegrees,WindSpeedMPH,WindSpeedGustMPH,Humidity,HourlyPrecipIn,Conditions,Clouds,dailyrainin,SoftwareType,DateUTC
2013-06-10 00:02:00,80.6,78.6,29.97,East,90,7.0,14.0,94,0.00,,,0.00,meteohub,2013-06-10 04:02:00,
2013-06-10 00:05:00,80.6,78.6,29.97,East,90,8.0,14.0,94,0.00,,,0.00,meteohub,2013-06-10 04:05:00,
2013-06-10 00:09:00,80.6,78.6,29.97,East,90,8.0,14.0,94,0.00,,,0.00,meteohub,2013-06-10 04:09:00,
2013-06-10 00:14:00,80.6,78.6,29.97,SE,135,8.0,11.0,94,0.00,,,0.00,meteohub,2013-06-10 04:14:00,
2013-06-10 00:19:00,80.4,78.8,29.97,NE,45,5.0,11.0,95,0.00,,,0.00,meteohub,2013-06-10 04:19:00,
2013-06-10 00:24:00,80.4,78.8,29.96,East,90,7.0,11.0,95,0.00,,,0.00,meteohub,2013-06-10 04:24:00,
2013-06-10 00:29:00,80.4,78.6,29.97,East,90,7.0,11.0,94,0.00,,,0.00,meteohub,2013-06-10 04:29:00,
2013-06-10 00:34:00,80.4,78.6,29.96,East,90,8.0,11.0,94,0.00,,,0.00,meteohub,2013-06-10 04:34:00,
2013-06-10 00:39:00,80.4,78.6,29.97,East,90,8.0,11.0,94,0.00,,,0.00,meteohub,2013-06-10 04:39:00,
2013-06-10 00:44:00,80.4,78.6,29.96,ESE,113,4.0,10.0,94,0.00,,,0.00,meteohub,2013-06-10 04:44:00,
2013-06-10 00:49:00,80.4,78.6,29.96,East,90,4.0,9.0,94,0.00,,,0.00,meteohub,2013-06-10 04:49:00,
2013-06-10 00:55:00,80.4,78.6,29.96,East,90,5.0,9.0,94,0.00,,,0.00,meteohub,2013-06-10 04:55:00,
2013-06-10 01:00:00,80.4,78.6,29.96,SE,135,8.0,8.0,94,0.00,,,0.00,meteohub,2013-06-10 05:00:00,
2013-06-10 01:05:00,80.4,78.6,29.96,East,90,5.0,8.0,94,0.00,,,0.00,meteohub,2013-06-10 05:05:00,
2013-06-10 01:10:00,80.4,78.6,29.96,ESE,113,11.0,11.0,94,0.00,,,0.00,meteohub,2013-06-10 05:10:00,
2013-06-10 01:15:00,80.4,78.6,29.96,East,90,8.0,10.0,94,0.00,,,0.00,meteohub,2013-06-10 05:15:00,
2013-06-10 01:20:00,80.4,78.6,29.96,SE,135,5.0,11.0,94,0.00,,,0.00,meteohub,2013-06-10 05:20:00,
2013-06-10 01:25:00,80.6,78.6,29.96,East,90,11.0,11.0,94,0.00,,,0.00,meteohub,2013-06-10 05:25:00,
2013-06-10 01:30:00,80.6,79.0,29.95,NE,45,8.0,11.0,95,0.00,,,0.00,meteohub,2013-06-10 05:30:00,
2013-06-10 01:35:00,80.6,79.0,29.96,East,90,11.0,11.0,95,0.00,,,0.00,meteohub,2013-06-10 05:35:00,
2013-06-10 01:40:00,80.6,79.3,29.95,East,90,6.0,11.0,96,0.00,,,0.00,meteohub,2013-06-10 05:40:00,
2013-06-10 01:45:00,80.4,79.2,29.95,East,90,8.0,11.0,96,0.00,,,0.00,meteohub,2013-06-10 05:45:00,
2013-06-10 01:50:00,80.4,79.2,29.95,East,90,5.0,11.0,96,0.00,,,0.00,meteohub,2013-06-10 05:50:00,
2013-06-10 01:56:00,80.2,79.3,29.95,East,90,4.0,10.0,97,0.00,,,0.00,meteohub,2013-06-10 05:56:00,
2013-06-10 02:01:00,80.2,79.3,29.95,East,90,6.0,9.0,97,0.00,,,0.00,meteohub,2013-06-10 06:01:00,
2013-06-10 02:06:00,80.2,79.3,29.94,NE,45,4.0,9.0,97,0.00,,,0.00,meteohub,2013-06-10 06:06:00,
2013-06-10 02:11:00,80.2,79.3,29.94,NE,45,7.0,9.0,97,0.00,,,0.00,meteohub,2013-06-10 06:11:00,
2013-06-10 02:16:00,80.2,79.3,29.94,SE,135,5.0,8.0,97,0.00,,,0.00,meteohub,2013-06-10 06:16:00,
2013-06-10 02:21:00,80.2,79.3,29.94,East,90,5.0,8.0,97,0.00,,,0.00,meteohub,2013-06-10 06:21:00,
2013-06-10 02:26:00,80.1,79.2,29.94,ESE,113,9.0,9.0,97,0.00,,,0.00,meteohub,2013-06-10 06:26:00,
2013-06-10 02:31:00,80.2,79.3,29.94,East,90,4.0,9.0,97,0.00,,,0.00,meteohub,2013-06-10 06:31:00,
2013-06-10 02:37:00,80.1,79.5,29.95,East,90,8.0,9.0,98,0.00,,,0.00,meteohub,2013-06-10 06:37:00,
2013-06-10 02:42:00,80.2,79.7,29.94,NE,45,6.0,9.0,98,0.00,,,0.00,meteohub,2013-06-10 06:42:00,
2013-06-10 02:47:00,80.1,79.5,29.94,East,90,5.0,8.0,98,0.00,,,0.00,meteohub,2013-06-10 06:47:00,
2013-06-10 02:52:00,79.9,79.3,29.94,NE,45,4.0,8.0,98,0.00,,,0.00,meteohub,2013-06-10 06:52:00,
2013-06-10 02:57:00,79.9,79.3,29.94,East,90,8.0,8.0,98,0.00,,,0.00,meteohub,2013-06-10 06:57:00,
2013-06-10 03:02:00,79.9,79.3,29.94,East,90,7.0,8.0,98,0.00,,,0.00,meteohub,2013-06-10 07:02:00,
2013-06-10 03:07:00,79.9,79.3,29.94,East,90,7.0,8.0,98,0.00,,,0.00,meteohub,2013-06-10 07:07:00,
2013-06-10 03:12:00,79.9,79.3,29.94,SE,135,3.0,8.0,98,0.00,,,0.00,meteohub,2013-06-10 07:12:00,
2013-06-10 03:17:00,80.1,79.5,29.94,SE,135,5.0,8.0,98,0.00,,,0.00,meteohub,2013-06-10 07:17:00,
2013-06-10 03:22:00,80.1,79.5,29.94,East,90,4.0,8.0,98,0.00,,,0.00,meteohub,2013-06-10 07:22:00,
2013-06-10 03:27:00,80.1,79.5,29.93,East,90,5.0,7.0,98,0.00,,,0.00,meteohub,2013-06-10 07:27:00,
2013-06-10 03:32:00,80.1,79.7,29.93,SE,135,7.0,8.0,99,0.00,,,0.00,meteohub,2013-06-10 07:32:00,
2013-06-10 03:38:00,80.1,79.7,29.93,North,0,4.0,8.0,99,0.00,,,0.00,meteohub,2013-06-10 07:38:00,
2013-06-10 03:43:00,80.1,79.5,29.93,East,90,8.0,8.0,98,0.00,,,0.00,meteohub,2013-06-10 07:43:00,
2013-06-10 03:48:00,80.1,79.5,29.93,East,90,4.0,9.0,98,0.00,,,0.00,meteohub,2013-06-10 07:48:00,
2013-06-10 03:53:00,80.1,79.5,29.93,East,90,6.0,9.0,98,0.00,,,0.00,meteohub,2013-06-10 07:53:00,
2013-06-10 03:58:00,80.1,79.5,29.93,East,90,6.0,9.0,98,0.00,,,0.00,meteohub,2013-06-10 07:58:00,
2013-06-10 04:03:00,79.9,79.5,29.93,East,90,7.0,8.0,99,0.00,,,0.00,meteohub,2013-06-10 08:03:00,
2013-06-10 04:08:00,79.9,79.5,29.93,SE,135,6.0,8.0,99,0.00,,,0.00,meteohub,2013-06-10 08:08:00,
2013-06-10 04:13:00,79.9,79.5,29.93,East,90,5.0,7.0,99,0.00,,,0.00,meteohub,2013-06-10 08:13:00,
2013-06-10 04:18:00,80.1,79.7,29.93,East,90,4.0,7.0,99,0.00,,,0.00,meteohub,2013-06-10 08:18:00,
2013-06-10 04:23:00,79.9,79.5,29.92,East,90,4.0,9.0,99,0.00,,,0.00,meteohub,2013-06-10 08:23:00,
2013-06-10 04:29:00,80.1,79.7,29.92,East,90,4.0,9.0,99,0.00,,,0.00,meteohub,2013-06-10 08:29:00,
2013-06-10 04:34:00,80.1,79.7,29.93,East,90,2.0,9.0,99,0.00,,,0.00,meteohub,2013-06-10 08:34:00,
2013-06-10 04:39:00,79.7,79.3,29.93,SE,135,4.0,7.0,99,0.00,,,0.00,meteohub,2013-06-10 08:39:00,
2013-06-10 04:44:00,79.2,78.8,29.93,East,90,3.0,7.0,99,0.01,,,0.01,meteohub,2013-06-10 08:44:00,
2013-06-10 04:49:00,78.8,78.4,29.93,SE,135,2.0,7.0,99,0.04,,,0.04,meteohub,2013-06-10 08:49:00,
2013-06-10 04:54:00,78.6,78.3,29.93,SE,135,2.0,5.0,99,0.04,,,0.04,meteohub,2013-06-10 08:54:00,
2013-06-10 04:59:00,78.4,78.1,29.92,SE,135,4.0,5.0,99,0.04,,,0.04,meteohub,2013-06-10 08:59:00,
2013-06-10 05:05:00,78.4,78.1,29.92,East,90,5.0,5.0,99,0.04,,,0.04,meteohub,2013-06-10 09:05:00,
2013-06-10 05:10:00,78.6,78.3,29.93,SE,135,7.0,7.0,99,0.04,,,0.04,meteohub,2013-06-10 09:10:00,
2013-06-10 05:15:00,78.8,78.4,29.93,East,90,3.0,8.0,99,0.04,,,0.04,meteohub,2013-06-10 09:15:00,
2013-06-10 05:20:00,78.6,78.3,29.93,SE,135,4.0,8.0,99,0.04,,,0.04,meteohub,2013-06-10 09:20:00,
2013-06-10 05:25:00,78.8,78.4,29.92,ESE,113,6.0,8.0,99,0.04,,,0.04,meteohub,2013-06-10 09:25:00,
2013-06-10 05:30:00,78.8,78.4,29.92,East,90,5.0,9.0,99,0.04,,,0.04,meteohub,2013-06-10 09:30:00,
2013-06-10 05:35:00,78.8,78.4,29.92,East,90,7.0,9.0,99,0.04,,,0.04,meteohub,2013-06-10 09:35:00,
2013-06-10 05:40:00,79.0,78.6,29.92,East,90,5.0,9.0,99,0.00,,,0.04,meteohub,2013-06-10 09:40:00,
2013-06-10 05:46:00,79.2,78.8,29.93,East,90,4.0,8.0,99,0.00,,,0.04,meteohub,2013-06-10 09:46:00,
2013-06-10 05:51:00,79.2,78.8,29.93,SE,135,9.0,9.0,99,0.00,,,0.04,meteohub,2013-06-10 09:51:00,
2013-06-10 05:56:00,79.3,79.0,29.93,SE,135,8.0,11.0,99,0.00,,,0.04,meteohub,2013-06-10 09:56:00,
2013-06-10 06:01:00,79.5,79.2,29.93,East,90,7.0,11.0,99,0.00,,,0.04,meteohub,2013-06-10 10:01:00,
2013-06-10 06:07:00,79.5,79.2,29.93,East,90,8.0,11.0,99,0.00,,,0.04,meteohub,2013-06-10 10:07:00,
2013-06-10 06:12:00,79.5,79.2,29.93,SE,135,6.0,8.0,99,0.00,,,0.04,meteohub,2013-06-10 10:12:00,
2013-06-10 06:17:00,79.5,79.2,29.94,East,90,8.0,8.0,99,0.00,,,0.04,meteohub,2013-06-10 10:17:00,
2013-06-10 06:22:00,79.7,79.3,29.93,East,90,4.0,8.0,99,0.00,,,0.04,meteohub,2013-06-10 10:22:00,
2013-06-10 06:27:00,79.5,79.2,29.93,East,90,8.0,8.0,99,0.00,,,0.04,meteohub,2013-06-10 10:27:00,
2013-06-10 06:32:00,79.5,79.2,29.93,NE,45,7.0,11.0,99,0.00,,,0.04,meteohub,2013-06-10 10:32:00,
2013-06-10 06:37:00,79.5,79.2,29.94,East,90,4.0,11.0,99,0.00,,,0.04,meteohub,2013-06-10 10:37:00,
2013-06-10 06:42:00,79.5,79.2,29.94,SE,135,6.0,9.0,99,0.00,,,0.04,meteohub,2013-06-10 10:42:00,
2013-06-10 06:47:00,79.7,79.3,29.94,SE,135,4.0,11.0,99,0.01,,,0.05,meteohub,2013-06-10 10:47:00,
2013-06-10 06:52:00,79.5,79.2,29.94,East,90,5.0,11.0,99,0.01,,,0.05,meteohub,2013-06-10 10:52:00,
2013-06-10 06:57:00,79.7,79.3,29.94,East,90,4.0,11.0,99,0.01,,,0.05,meteohub,2013-06-10 10:57:00,
2013-06-10 07:02:00,79.9,79.5,29.94,East,90,7.0,8.0,99,0.01,,,0.05,meteohub,2013-06-10 11:02:00,
2013-06-10 07:07:00,80.1,79.7,29.94,East,90,7.0,8.0,99,0.01,,,0.05,meteohub,2013-06-10 11:07:00,
2013-06-10 07:12:00,80.2,79.7,29.94,SE,135,6.0,9.0,98,0.01,,,0.05,meteohub,2013-06-10 11:12:00,
2013-06-10 07:17:00,80.4,79.9,29.94,East,90,6.0,9.0,98,0.01,,,0.05,meteohub,2013-06-10 11:17:00,
2013-06-10 07:22:00,80.4,79.9,29.94,SE,135,3.0,9.0,98,0.01,,,0.05,meteohub,2013-06-10 11:22:00,
2013-06-10 07:28:00,80.8,79.9,29.94,East,90,8.0,10.0,97,0.01,,,0.05,meteohub,2013-06-10 11:28:00,
2013-06-10 07:33:00,81.0,79.7,29.94,East,90,5.0,10.0,96,0.01,,,0.05,meteohub,2013-06-10 11:33:00,
2013-06-10 07:38:00,81.5,79.9,29.95,East,90,6.0,10.0,95,0.01,,,0.05,meteohub,2013-06-10 11:38:00,
2013-06-10 07:43:00,81.5,79.5,29.94,SE,135,7.0,8.0,94,0.00,,,0.05,meteohub,2013-06-10 11:43:00,
2013-06-10 07:48:00,82.4,80.2,29.95,East,90,4.0,7.0,93,0.00,,,0.05,meteohub,2013-06-10 11:48:00,
2013-06-10 07:54:00,83.3,80.1,29.95,East,90,8.0,8.0,90,0.00,,,0.05,meteohub,2013-06-10 11:54:00,
2013-06-10 07:59:00,83.5,79.9,29.95,East,90,8.0,12.0,89,0.00,,,0.05,meteohub,2013-06-10 11:59:00,
2013-06-10 08:04:00,83.5,79.9,29.95,East,90,8.0,12.0,89,0.00,,,0.05,meteohub,2013-06-10 12:04:00,
2013-06-10 08:09:00,83.7,79.7,29.95,East,90,10.0,12.0,88,0.00,,,0.05,meteohub,2013-06-10 12:09:00,
2013-06-10 08:14:00,84.4,80.1,29.95,East,90,9.0,11.0,87,0.00,,,0.05,meteohub,2013-06-10 12:14:00,
2013-06-10 08:19:00,84.7,79.7,29.95,East,90,6.0,11.0,85,0.00,,,0.05,meteohub,2013-06-10 12:19:00,
2013-06-10 08:24:00,85.3,79.9,29.95,East,90,11.0,11.0,84,0.00,,,0.05,meteohub,2013-06-10 12:24:00,
2013-06-10 08:29:00,84.9,79.5,29.96,SE,135,8.0,11.0,84,0.00,,,0.05,meteohub,2013-06-10 12:29:00,
2013-06-10 08:35:00,84.9,79.5,29.95,East,90,14.0,14.0,84,0.00,,,0.05,meteohub,2013-06-10 12:35:00,
2013-06-10 08:40:00,85.1,79.7,29.96,East,90,8.0,11.0,84,0.00,,,0.05,meteohub,2013-06-10 12:40:00,
2013-06-10 08:45:00,85.1,79.7,29.96,East,90,8.0,14.0,84,0.00,,,0.05,meteohub,2013-06-10 12:45:00,
2013-06-10 08:50:00,85.1,79.3,29.96,South,180,10.0,10.0,83,0.00,,,0.05,meteohub,2013-06-10 12:50:00,
2013-06-10 08:56:00,84.6,79.2,29.96,East,90,11.0,13.0,84,0.00,,,0.05,meteohub,2013-06-10 12:56:00,
2013-06-10 09:01:00,84.7,79.7,29.96,ESE,113,10.0,13.0,85,0.00,,,0.05,meteohub,2013-06-10 13:01:00,
2013-06-10 09:06:00,85.1,79.7,29.96,SE,135,5.0,13.0,84,0.00,,,0.05,meteohub,2013-06-10 13:06:00,
2013-06-10 09:11:00,85.6,79.9,29.96,East,90,8.0,11.0,83,0.00,,,0.05,meteohub,2013-06-10 13:11:00,
2013-06-10 09:16:00,85.6,79.9,29.96,East,90,11.0,13.0,83,0.00,,,0.05,meteohub,2013-06-10 13:16:00,
2013-06-10 09:21:00,85.6,79.5,29.96,East,90,8.0,15.0,82,0.00,,,0.05,meteohub,2013-06-10 13:21:00,
2013-06-10 09:26:00,86.2,80.1,29.95,East,90,6.0,15.0,82,0.00,,,0.05,meteohub,2013-06-10 13:26:00,
2013-06-10 09:31:00,86.7,79.0,29.96,East,90,9.0,14.0,78,0.00,,,0.05,meteohub,2013-06-10 13:31:00,
2013-06-10 09:37:00,86.9,79.2,29.96,East,90,11.0,14.0,78,0.00,,,0.05,meteohub,2013-06-10 13:37:00,
2013-06-10 09:42:00,86.5,78.1,29.96,East,90,10.0,12.0,76,0.00,,,0.05,meteohub,2013-06-10 13:42:00,
2013-06-10 09:47:00,86.4,78.3,29.96,East,90,11.0,11.0,77,0.00,,,0.05,meteohub,2013-06-10 13:47:00,
2013-06-10 09:52:00,86.5,78.4,29.96,East,90,9.0,12.0,77,0.00,,,0.05,meteohub,2013-06-10 13:52:00,
2013-06-10 09:57:00,86.9,78.8,29.96,NE,45,11.0,13.0,77,0.00,,,0.05,meteohub,2013-06-10 13:57:00,
2013-06-10 10:02:00,86.7,78.6,29.96,East,90,11.0,13.0,77,0.00,,,0.05,meteohub,2013-06-10 14:02:00,
2013-06-10 10:07:00,86.4,78.3,29.96,East,90,9.0,13.0,77,0.00,,,0.05,meteohub,2013-06-10 14:07:00,
2013-06-10 10:12:00,86.5,78.4,29.96,SE,135,8.0,14.0,77,0.00,,,0.05,meteohub,2013-06-10 14:12:00,
2013-06-10 10:17:00,86.0,78.8,29.96,ENE,68,11.0,14.0,79,0.00,,,0.05,meteohub,2013-06-10 14:17:00,
2013-06-10 10:22:00,85.5,78.3,29.96,East,90,10.0,12.0,79,0.00,,,0.05,meteohub,2013-06-10 14:22:00,
2013-06-10 10:27:00,85.8,78.1,29.96,ESE,113,8.0,12.0,78,0.00,,,0.05,meteohub,2013-06-10 14:27:00,
2013-06-10 10:32:00,86.2,78.1,29.96,NE,45,9.0,11.0,77,0.00,,,0.05,meteohub,2013-06-10 14:32:00,
2013-06-10 10:37:00,85.8,78.6,29.97,SE,135,8.0,11.0,79,0.00,,,0.05,meteohub,2013-06-10 14:37:00,
2013-06-10 10:42:00,85.3,78.8,29.96,ESE,113,5.0,11.0,81,0.00,,,0.05,meteohub,2013-06-10 14:42:00,
2013-06-10 10:47:00,85.3,78.1,29.96,East,90,4.0,9.0,79,0.00,,,0.05,meteohub,2013-06-10 14:47:00,
2013-06-10 10:52:00,86.7,78.3,29.96,WNW,293,8.0,9.0,76,0.00,,,0.05,meteohub,2013-06-10 14:52:00,
2013-06-10 10:58:00,87.4,77.4,29.96,South,180,9.0,10.0,72,0.00,,,0.05,meteohub,2013-06-10 14:58:00,
2013-06-10 11:03:00,87.8,77.7,29.97,SE,135,11.0,11.0,72,0.00,,,0.05,meteohub,2013-06-10 15:03:00,
2013-06-10 11:08:00,87.3,77.5,29.97,East,90,11.0,11.0,73,0.00,,,0.05,meteohub,2013-06-10 15:08:00,
2013-06-10 11:13:00,87.4,77.7,29.96,SE,135,9.0,12.0,73,0.00,,,0.05,meteohub,2013-06-10 15:13:00,
2013-06-10 11:18:00,87.6,77.9,29.97,East,90,9.0,12.0,73,0.00,,,0.05,meteohub,2013-06-10 15:18:00,
2013-06-10 11:23:00,87.8,78.8,29.96,East,90,8.0,12.0,75,0.00,,,0.05,meteohub,2013-06-10 15:23:00,
2013-06-10 11:28:00,88.0,78.3,29.97,SE,135,8.0,11.0,73,0.00,,,0.05,meteohub,2013-06-10 15:28:00,
2013-06-10 11:34:00,87.1,78.3,29.96,East,90,8.0,11.0,75,0.00,,,0.05,meteohub,2013-06-10 15:34:00,
2013-06-10 11:38:00,87.6,78.6,29.96,NE,45,13.0,13.0,75,0.00,,,0.05,meteohub,2013-06-10 15:38:00,
2013-06-10 11:44:00,87.8,79.7,29.96,East,90,8.0,13.0,77,0.00,,,0.05,meteohub,2013-06-10 15:44:00,
2013-06-10 11:46:00,87.6,78.6,29.96,SE,135,10.0,13.0,75,0.00,,,0.05,meteohub,2013-06-10 15:46:00,
2013-06-10 11:52:00,86.7,79.0,29.96,East,90,10.0,13.0,78,0.00,,,0.05,meteohub,2013-06-10 15:52:00,
2013-06-10 11:57:00,86.4,78.6,29.96,East,90,10.0,13.0,78,0.00,,,0.05,meteohub,2013-06-10 15:57:00,
2013-06-10 12:02:00,86.7,78.3,29.96,East,90,12.0,14.0,76,0.00,,,0.05,meteohub,2013-06-10 16:02:00,
2013-06-10 12:07:00,86.2,78.4,29.96,East,90,14.0,14.0,78,0.00,,,0.05,meteohub,2013-06-10 16:07:00,
2013-06-10 12:12:00,86.4,78.6,29.96,South,180,11.0,14.0,78,0.00,,,0.05,meteohub,2013-06-10 16:12:00,
2013-06-10 12:17:00,86.5,78.4,29.95,East,90,12.0,14.0,77,0.00,,,0.05,meteohub,2013-06-10 16:17:00,
2013-06-10 12:22:00,87.1,79.0,29.95,East,90,9.0,14.0,77,0.00,,,0.05,meteohub,2013-06-10 16:22:00,
2013-06-10 12:27:00,87.3,78.4,29.94,East,90,13.0,13.0,75,0.00,,,0.05,meteohub,2013-06-10 16:27:00,
2013-06-10 12:32:00,87.1,78.6,29.94,East,90,12.0,15.0,76,0.00,,,0.05,meteohub,2013-06-10 16:32:00,
2013-06-10 12:37:00,86.9,79.2,29.94,SE,135,8.0,15.0,78,0.00,,,0.05,meteohub,2013-06-10 16:37:00,
2013-06-10 12:42:00,87.4,78.6,29.94,NE,45,9.0,15.0,75,0.00,,,0.05,meteohub,2013-06-10 16:42:00,
2013-06-10 12:47:00,87.6,79.2,29.94,ESE,113,11.0,13.0,76,0.00,,,0.05,meteohub,2013-06-10 16:47:00,
2013-06-10 12:52:00,88.0,79.5,29.94,East,90,6.0,12.0,76,0.00,,,0.05,meteohub,2013-06-10 16:52:00,
2013-06-10 12:57:00,87.8,78.4,29.94,East,90,13.0,13.0,74,0.00,,,0.05,meteohub,2013-06-10 16:57:00,
2013-06-10 13:02:00,88.0,78.6,29.94,East,90,11.0,13.0,74,0.00,,,0.05,meteohub,2013-06-10 17:02:00,
2013-06-10 13:07:00,87.6,78.3,29.94,East,90,15.0,15.0,74,0.00,,,0.05,meteohub,2013-06-10 17:07:00,
2013-06-10 13:13:00,87.3,78.4,29.94,East,90,11.0,15.0,75,0.00,,,0.05,meteohub,2013-06-10 17:13:00,
2013-06-10 13:18:00,86.9,79.2,29.94,East,90,11.0,15.0,78,0.00,,,0.05,meteohub,2013-06-10 17:18:00,
2013-06-10 13:23:00,86.9,79.2,29.94,West,270,8.0,15.0,78,0.00,,,0.05,meteohub,2013-06-10 17:23:00,
2013-06-10 13:28:00,86.2,78.4,29.94,ESE,113,9.0,14.0,78,0.00,,,0.05,meteohub,2013-06-10 17:28:00,
2013-06-10 13:33:00,86.4,78.6,29.94,East,90,5.0,14.0,78,0.00,,,0.05,meteohub,2013-06-10 17:33:00,
2013-06-10 13:39:00,86.9,79.5,29.94,SW,225,7.0,14.0,79,0.00,,,0.05,meteohub,2013-06-10 17:39:00,
2013-06-10 13:44:00,87.6,78.3,29.94,East,90,12.0,14.0,74,0.00,,,0.05,meteohub,2013-06-10 17:44:00,
2013-06-10 13:49:00,87.3,78.8,29.94,East,90,12.0,13.0,76,0.00,,,0.05,meteohub,2013-06-10 17:49:00,
2013-06-10 13:54:00,86.9,78.8,29.94,East,90,7.0,13.0,77,0.00,,,0.05,meteohub,2013-06-10 17:54:00,
2013-06-10 13:59:00,87.3,78.8,29.93,East,90,10.0,15.0,76,0.00,,,0.05,meteohub,2013-06-10 17:59:00,
2013-06-10 14:04:00,86.5,78.4,29.93,East,90,15.0,15.0,77,0.00,,,0.05,meteohub,2013-06-10 18:04:00,
2013-06-10 14:10:00,86.0,78.3,29.93,East,90,11.0,15.0,78,0.00,,,0.05,meteohub,2013-06-10 18:10:00,
2013-06-10 14:15:00,86.9,78.8,29.93,East,90,8.0,17.0,77,0.00,,,0.05,meteohub,2013-06-10 18:15:00,
2013-06-10 14:20:00,87.4,78.1,29.93,East,90,13.0,17.0,74,0.00,,,0.05,meteohub,2013-06-10 18:20:00,
2013-06-10 14:25:00,87.1,78.6,29.93,NE,45,11.0,14.0,76,0.00,,,0.05,meteohub,2013-06-10 18:25:00,
2013-06-10 14:30:00,87.6,78.6,29.93,East,90,10.0,14.0,75,0.00,,,0.05,meteohub,2013-06-10 18:30:00,
2013-06-10 14:36:00,87.6,78.6,29.93,East,90,9.0,14.0,75,0.00,,,0.05,meteohub,2013-06-10 18:36:00,
2013-06-10 14:41:00,87.3,79.2,29.93,NE,45,13.0,13.0,77,0.00,,,0.05,meteohub,2013-06-10 18:41:00,
2013-06-10 14:46:00,87.6,78.6,29.92,East,90,11.0,13.0,75,0.00,,,0.05,meteohub,2013-06-10 18:46:00,
2013-06-10 14:51:00,87.4,78.6,29.92,SE,135,11.0,13.0,75,0.00,,,0.05,meteohub,2013-06-10 18:51:00,
2013-06-10 14:57:00,87.4,78.1,29.92,SE,135,10.0,14.0,74,0.00,,,0.05,meteohub,2013-06-10 18:57:00,
2013-06-10 15:02:00,88.7,79.0,29.92,East,90,9.0,14.0,73,0.00,,,0.05,meteohub,2013-06-10 19:02:00,
2013-06-10 15:07:00,88.3,77.7,29.92,NE,45,12.0,14.0,71,0.00,,,0.05,meteohub,2013-06-10 19:07:00,
2013-06-10 15:12:00,88.3,78.6,29.92,NE,45,6.0,13.0,73,0.00,,,0.05,meteohub,2013-06-10 19:12:00,
2013-06-10 15:17:00,89.1,78.4,29.92,East,90,11.0,13.0,71,0.00,,,0.05,meteohub,2013-06-10 19:17:00,
2013-06-10 15:23:00,88.7,77.7,29.93,East,90,15.0,15.0,70,0.00,,,0.05,meteohub,2013-06-10 19:23:00,
2013-06-10 15:28:00,87.8,78.4,29.92,East,90,11.0,13.0,74,0.00,,,0.05,meteohub,2013-06-10 19:28:00,
2013-06-10 15:33:00,87.6,78.3,29.92,East,90,11.0,15.0,74,0.00,,,0.05,meteohub,2013-06-10 19:33:00,
2013-06-10 15:38:00,88.2,78.8,29.93,East,90,8.0,15.0,74,0.00,,,0.05,meteohub,2013-06-10 19:38:00,
2013-06-10 15:43:00,88.3,78.1,29.91,East,90,11.0,14.0,72,0.00,,,0.05,meteohub,2013-06-10 19:43:00,
2013-06-10 15:49:00,88.3,78.1,29.92,East,90,8.0,11.0,72,0.00,,,0.05,meteohub,2013-06-10 19:49:00,
2013-06-10 15:54:00,88.7,78.1,29.92,East,90,10.0,16.0,71,0.00,,,0.05,meteohub,2013-06-10 19:54:00,
2013-06-10 15:59:00,88.2,77.9,29.92,NE,45,11.0,16.0,72,0.00,,,0.05,meteohub,2013-06-10 19:59:00,
2013-06-10 16:04:00,87.8,78.1,29.91,SE,135,9.0,16.0,73,0.00,,,0.05,meteohub,2013-06-10 20:04:00,
2013-06-10 16:09:00,88.5,78.3,29.91,NE,45,8.0,16.0,72,0.00,,,0.05,meteohub,2013-06-10 20:09:00,
2013-06-10 16:15:00,89.1,78.8,29.91,NE,45,8.0,14.0,72,0.00,,,0.05,meteohub,2013-06-10 20:15:00,
2013-06-10 16:20:00,88.9,78.3,29.91,East,90,10.0,13.0,71,0.00,,,0.05,meteohub,2013-06-10 20:20:00,
2013-06-10 16:25:00,87.8,78.4,29.91,East,90,4.0,13.0,74,0.00,,,0.05,meteohub,2013-06-10 20:25:00,
2013-06-10 16:30:00,88.3,78.6,29.91,NE,45,9.0,13.0,73,0.00,,,0.05,meteohub,2013-06-10 20:30:00,
2013-06-10 16:35:00,88.5,77.9,29.91,SE,135,10.0,11.0,71,0.00,,,0.05,meteohub,2013-06-10 20:35:00,
2013-06-10 16:41:00,87.6,78.6,29.91,East,90,7.0,11.0,75,0.00,,,0.05,meteohub,2013-06-10 20:41:00,
2013-06-10 16:46:00,86.4,77.9,29.91,East,90,11.0,12.0,76,0.00,,,0.05,meteohub,2013-06-10 20:46:00,
2013-06-10 16:51:00,86.2,78.4,29.91,East,90,8.0,13.0,78,0.00,,,0.05,meteohub,2013-06-10 20:51:00,
2013-06-10 16:56:00,86.7,78.3,29.91,East,90,6.0,13.0,76,0.00,,,0.05,meteohub,2013-06-10 20:56:00,
2013-06-10 17:01:00,86.7,78.3,29.91,East,90,11.0,13.0,76,0.00,,,0.05,meteohub,2013-06-10 21:01:00,
2013-06-10 17:06:00,86.7,78.6,29.90,East,90,7.0,11.0,77,0.00,,,0.05,meteohub,2013-06-10 21:06:00,
2013-06-10 17:11:00,87.8,78.4,29.90,NE,45,11.0,11.0,74,0.00,,,0.05,meteohub,2013-06-10 21:11:00,
2013-06-10 17:17:00,88.0,78.3,29.90,East,90,8.0,11.0,73,0.00,,,0.05,meteohub,2013-06-10 21:17:00,
2013-06-10 17:22:00,89.1,78.4,29.90,NE,45,7.0,11.0,71,0.00,,,0.05,meteohub,2013-06-10 21:22:00,
2013-06-10 17:27:00,87.8,78.1,29.90,SE,135,14.0,14.0,73,0.00,,,0.05,meteohub,2013-06-10 21:27:00,
2013-06-10 17:32:00,87.4,78.6,29.90,East,90,9.0,14.0,75,0.00,,,0.05,meteohub,2013-06-10 21:32:00,
2013-06-10 17:37:00,87.6,77.0,29.89,East,90,13.0,14.0,71,0.00,,,0.05,meteohub,2013-06-10 21:37:00,
2013-06-10 17:42:00,88.0,78.3,29.89,East,90,9.0,14.0,73,0.00,,,0.05,meteohub,2013-06-10 21:42:00,
2013-06-10 17:47:00,88.5,78.8,29.89,SE,135,7.0,14.0,73,0.00,,,0.05,meteohub,2013-06-10 21:47:00,
2013-06-10 17:53:00,88.3,77.7,29.89,East,90,15.0,15.0,71,0.00,,,0.05,meteohub,2013-06-10 21:53:00,
2013-06-10 17:58:00,88.0,78.3,29.89,East,90,15.0,15.0,73,0.00,,,0.05,meteohub,2013-06-10 21:58:00,
2013-06-10 18:03:00,87.8,78.4,29.90,East,90,13.0,15.0,74,0.00,,,0.05,meteohub,2013-06-10 22:03:00,
2013-06-10 18:08:00,87.8,78.4,29.90,NE,45,8.0,15.0,74,0.00,,,0.05,meteohub,2013-06-10 22:08:00,
2013-06-10 18:13:00,88.3,77.7,29.90,SE,135,7.0,15.0,71,0.00,,,0.05,meteohub,2013-06-10 22:13:00,
2013-06-10 18:18:00,87.8,78.1,29.90,East,90,10.0,13.0,73,0.00,,,0.05,meteohub,2013-06-10 22:18:00,
2013-06-10 18:24:00,86.9,78.1,29.89,East,90,8.0,11.0,75,0.00,,,0.05,meteohub,2013-06-10 22:24:00,
2013-06-10 18:29:00,86.4,78.3,29.89,East,90,10.0,11.0,77,0.00,,,0.05,meteohub,2013-06-10 22:29:00,
2013-06-10 18:34:00,86.9,78.4,29.89,East,90,11.0,12.0,76,0.00,,,0.05,meteohub,2013-06-10 22:34:00,
2013-06-10 18:39:00,86.7,78.3,29.88,NE,45,5.0,12.0,76,0.00,,,0.05,meteohub,2013-06-10 22:39:00,
2013-06-10 18:44:00,86.5,78.4,29.89,NE,45,4.0,12.0,77,0.00,,,0.05,meteohub,2013-06-10 22:44:00,
2013-06-10 18:49:00,86.7,78.3,29.89,NE,45,9.0,12.0,76,0.00,,,0.05,meteohub,2013-06-10 22:49:00,
2013-06-10 18:54:00,86.0,77.9,29.89,NE,45,6.0,12.0,77,0.00,,,0.05,meteohub,2013-06-10 22:54:00,
2013-06-10 19:00:00,85.3,78.1,29.89,East,90,7.0,12.0,79,0.00,,,0.05,meteohub,2013-06-10 23:00:00,
2013-06-10 19:05:00,84.6,77.7,29.89,East,90,6.0,11.0,80,0.00,,,0.05,meteohub,2013-06-10 23:05:00,
2013-06-10 19:10:00,83.8,78.1,29.89,East,90,8.0,11.0,83,0.00,,,0.05,meteohub,2013-06-10 23:10:00,
2013-06-10 19:15:00,83.5,78.4,29.90,East,90,6.0,11.0,85,0.00,,,0.05,meteohub,2013-06-10 23:15:00,
2013-06-10 19:20:00,83.1,78.1,29.89,East,90,7.0,11.0,85,0.00,,,0.05,meteohub,2013-06-10 23:20:00,
2013-06-10 19:25:00,82.9,78.3,29.90,East,90,7.0,11.0,86,0.00,,,0.05,meteohub,2013-06-10 23:25:00,
2013-06-10 19:30:00,82.8,78.1,29.90,East,90,4.0,11.0,86,0.00,,,0.05,meteohub,2013-06-10 23:30:00,
2013-06-10 19:35:00,82.8,78.1,29.90,SE,135,6.0,11.0,86,0.00,,,0.05,meteohub,2013-06-10 23:35:00,
2013-06-10 19:41:00,82.6,78.3,29.90,East,90,4.0,8.0,87,0.00,,,0.05,meteohub,2013-06-10 23:41:00,
2013-06-10 19:46:00,82.6,78.6,29.90,East,90,7.0,8.0,88,0.00,,,0.05,meteohub,2013-06-10 23:46:00,
2013-06-10 19:51:00,82.4,78.4,29.90,North,0,5.0,8.0,88,0.00,,,0.05,meteohub,2013-06-10 23:51:00,
2013-06-10 19:56:00,82.2,78.6,29.90,East,90,6.0,8.0,89,0.00,,,0.05,meteohub,2013-06-10 23:56:00,
2013-06-10 20:02:00,82.2,78.6,29.90,East,90,9.0,9.0,89,0.00,,,0.05,meteohub,2013-06-11 00:02:00,
2013-06-10 20:07:00,82.0,78.8,29.90,East,90,7.0,9.0,90,0.00,,,0.00,meteohub,2013-06-11 00:07:00,
2013-06-10 20:12:00,81.9,79.0,29.91,East,90,5.0,9.0,91,0.00,,,0.00,meteohub,2013-06-11 00:12:00,
2013-06-10 20:17:00,81.9,79.0,29.91,NE,45,8.0,9.0,91,0.00,,,0.00,meteohub,2013-06-11 00:17:00,
2013-06-10 20:22:00,81.9,79.3,29.91,East,90,7.0,8.0,92,0.00,,,0.00,meteohub,2013-06-11 00:22:00,
2013-06-10 20:27:00,81.9,79.3,29.91,North,0,6.0,10.0,92,0.00,,,0.00,meteohub,2013-06-11 00:27:00,
2013-06-10 20:32:00,81.9,79.3,29.92,SE,135,3.0,10.0,92,0.00,,,0.00,meteohub,2013-06-11 00:32:00,
2013-06-10 20:37:00,81.7,79.2,29.92,East,90,6.0,10.0,92,0.00,,,0.00,meteohub,2013-06-11 00:37:00,
2013-06-10 20:42:00,81.7,79.5,29.92,NE,45,8.0,8.0,93,0.00,,,0.00,meteohub,2013-06-11 00:42:00,
2013-06-10 20:47:00,81.7,79.2,29.92,East,90,6.0,8.0,92,0.00,,,0.00,meteohub,2013-06-11 00:47:00,
2013-06-10 20:52:00,81.7,79.5,29.92,East,90,6.0,8.0,93,0.00,,,0.00,meteohub,2013-06-11 00:52:00,
2013-06-10 20:57:00,81.7,79.5,29.92,ESE,113,5.0,8.0,93,0.00,,,0.00,meteohub,2013-06-11 00:57:00,
2013-06-10 21:02:00,81.7,79.5,29.93,East,90,6.0,8.0,93,0.00,,,0.00,meteohub,2013-06-11 01:02:00,
2013-06-10 21:07:00,81.7,79.5,29.93,East,90,7.0,7.0,93,0.00,,,0.00,meteohub,2013-06-11 01:07:00,
2013-06-10 21:12:00,81.7,79.7,29.94,East,90,6.0,7.0,94,0.00,,,0.00,meteohub,2013-06-11 01:12:00,
2013-06-10 21:17:00,81.7,79.7,29.94,NE,45,3.0,7.0,94,0.00,,,0.00,meteohub,2013-06-11 01:17:00,
2013-06-10 21:22:00,81.7,79.7,29.94,East,90,5.0,8.0,94,0.00,,,0.00,meteohub,2013-06-11 01:22:00,
2013-06-10 21:27:00,81.7,80.1,29.94,East,90,6.0,8.0,95,0.00,,,0.00,meteohub,2013-06-11 01:27:00,
2013-06-10 21:32:00,81.7,80.1,29.94,East,90,4.0,8.0,95,0.00,,,0.00,meteohub,2013-06-11 01:32:00,
2013-06-10 21:37:00,81.7,79.7,29.95,East,90,2.0,8.0,94,0.00,,,0.00,meteohub,2013-06-11 01:37:00,
2013-06-10 21:42:00,81.7,80.1,29.95,East,90,8.0,8.0,95,0.00,,,0.00,meteohub,2013-06-11 01:42:00,
2013-06-10 21:48:00,81.9,80.2,29.95,SE,135,3.0,8.0,95,0.00,,,0.00,meteohub,2013-06-11 01:48:00,
2013-06-10 21:53:00,81.9,80.2,29.95,NE,45,3.0,8.0,95,0.00,,,0.00,meteohub,2013-06-11 01:53:00,
2013-06-10 21:58:00,81.9,80.2,29.95,NE,45,4.0,8.0,95,0.00,,,0.00,meteohub,2013-06-11 01:58:00,
2013-06-10 22:03:00,81.9,80.2,29.95,East,90,4.0,6.0,95,0.00,,,0.00,meteohub,2013-06-11 02:03:00,
2013-06-10 22:08:00,81.9,80.2,29.95,East,90,2.0,6.0,95,0.00,,,0.00,meteohub,2013-06-11 02:08:00,
2013-06-10 22:13:00,81.9,80.2,29.95,East,90,4.0,6.0,95,0.00,,,0.00,meteohub,2013-06-11 02:13:00,
2013-06-10 22:18:00,82.0,80.4,29.95,NE,45,6.0,6.0,95,0.00,,,0.00,meteohub,2013-06-11 02:18:00,
2013-06-10 22:24:00,82.0,80.4,29.95,SE,135,4.0,5.0,95,0.00,,,0.00,meteohub,2013-06-11 02:24:00,
2013-06-10 22:29:00,81.9,80.2,29.95,East,90,5.0,6.0,95,0.00,,,0.00,meteohub,2013-06-11 02:29:00,
2013-06-10 22:34:00,82.0,80.4,29.95,East,90,2.0,8.0,95,0.00,,,0.00,meteohub,2013-06-11 02:34:00,
2013-06-10 22:39:00,81.9,80.2,29.95,East,90,4.0,8.0,95,0.00,,,0.00,meteohub,2013-06-11 02:39:00,
2013-06-10 22:44:00,81.9,80.2,29.95,East,90,6.0,8.0,95,0.00,,,0.00,meteohub,2013-06-11 02:44:00,
2013-06-10 22:49:00,81.9,80.2,29.95,East,90,4.0,7.0,95,0.00,,,0.00,meteohub,2013-06-11 02:49:00,
2013-06-10 22:54:00,81.9,80.2,29.95,SE,135,5.0,7.0,95,0.00,,,0.00,meteohub,2013-06-11 02:54:00,
2013-06-10 23:00:00,81.9,80.2,29.95,East,90,8.0,8.0,95,0.00,,,0.00,meteohub,2013-06-11 03:00:00,
2013-06-10 23:05:00,81.9,80.2,29.96,SE,135,4.0,8.0,95,0.00,,,0.00,meteohub,2013-06-11 03:05:00,
2013-06-10 23:10:00,81.9,80.6,29.96,East,90,6.0,8.0,96,0.00,,,0.00,meteohub,2013-06-11 03:10:00,
2013-06-10 23:15:00,81.9,80.2,29.96,East,90,8.0,8.0,95,0.00,,,0.00,meteohub,2013-06-11 03:15:00,
2013-06-10 23:20:00,81.7,80.4,29.96,East,90,5.0,8.0,96,0.00,,,0.00,meteohub,2013-06-11 03:20:00,
2013-06-10 23:26:00,81.7,80.4,29.96,East,90,7.0,8.0,96,0.00,,,0.00,meteohub,2013-06-11 03:26:00,
2013-06-10 23:31:00,81.7,80.4,29.96,SE,135,5.0,8.0,96,0.00,,,0.00,meteohub,2013-06-11 03:31:00,
2013-06-10 23:36:00,81.7,80.4,29.96,ESE,113,8.0,8.0,96,0.00,,,0.00,meteohub,2013-06-11 03:36:00,
2013-06-10 23:41:00,81.5,80.2,29.96,NE,45,6.0,8.0,96,0.00,,,0.00,meteohub,2013-06-11 03:41:00,
2013-06-10 23:46:00,81.7,80.4,29.96,East,90,8.0,8.0,96,0.00,,,0.00,meteohub,2013-06-11 03:46:00,
2013-06-10 23:51:00,81.5,80.2,29.96,East,90,3.0,8.0,96,0.00,,,0.00,meteohub,2013-06-11 03:51:00,
2013-06-10 23:56:00,81.5,80.2,29.95,East,90,3.0,8.0,96,0.00,,,0.00,meteohub,2013-06-11 03:56:00,